createdAt,value
2018-07-30T00:02:02.877Z,24.04
2018-07-30T00:04:31.261Z,23.85
2018-07-30T00:06:59.705Z,23.72
2018-07-30T00:09:28.083Z,23.79
2018-07-30T00:11:56.500Z,23.83
2018-07-30T00:14:24.931Z,23.84
2018-07-30T00:16:53.369Z,23.84
2018-07-30T00:19:21.781Z,23.79
2018-07-30T00:21:50.275Z,23.84
2018-07-30T00:24:18.685Z,23.84
2018-07-30T00:26:47.152Z,23.86
2018-07-30T00:29:15.651Z,23.84
2018-07-30T00:31:44.088Z,23.83
2018-07-30T00:34:12.530Z,23.76
2018-07-30T00:36:40.971Z,23.76
2018-07-30T00:39:11.180Z,23.74
2018-07-30T00:41:39.929Z,23.69
2018-07-30T00:44:08.455Z,23.65
2018-07-30T00:46:37.506Z,23.65
2018-07-30T00:49:06.581Z,23.55
2018-07-30T00:51:34.960Z,23.46
2018-07-30T00:54:03.356Z,23.50
2018-07-30T00:56:31.772Z,23.52
2018-07-30T00:59:00.159Z,23.50
2018-07-30T01:01:28.610Z,23.50
2018-07-30T01:03:57.095Z,23.48
2018-07-30T01:06:25.586Z,23.46
2018-07-30T01:08:53.995Z,23.41
2018-07-30T01:11:22.425Z,23.37
2018-07-30T01:13:50.853Z,23.31
2018-07-30T01:16:19.396Z,23.19
2018-07-30T01:18:47.837Z,23.14
2018-07-30T01:21:16.226Z,23.12
2018-07-30T01:23:44.610Z,23.02
2018-07-30T01:26:18.331Z,22.95
2018-07-30T01:28:46.691Z,22.88
2018-07-30T01:31:15.095Z,22.88
2018-07-30T01:33:43.472Z,22.88
2018-07-30T01:36:11.927Z,22.84
2018-07-30T01:38:40.347Z,22.80
2018-07-30T01:41:08.796Z,22.79
2018-07-30T01:43:37.245Z,22.80
2018-07-30T01:46:05.879Z,22.73
2018-07-30T01:48:34.286Z,22.73
2018-07-30T01:51:02.666Z,22.80
2018-07-30T01:53:31.229Z,22.81
2018-07-30T01:55:59.941Z,22.80
2018-07-30T01:58:28.380Z,22.76
2018-07-30T02:00:56.786Z,22.66
2018-07-30T02:03:25.259Z,22.50
2018-07-30T02:05:53.770Z,22.41
2018-07-30T02:08:22.189Z,22.38
2018-07-30T02:10:50.645Z,22.32
2018-07-30T02:13:19.080Z,22.32
2018-07-30T02:15:47.473Z,22.23
2018-07-30T02:18:15.877Z,22.23
2018-07-30T02:20:44.291Z,22.27
2018-07-30T02:23:12.735Z,22.20
2018-07-30T02:25:41.097Z,22.18
2018-07-30T02:28:09.484Z,22.15
2018-07-30T02:30:37.988Z,22.01
2018-07-30T02:33:06.575Z,21.91
2018-07-30T02:35:34.993Z,21.95
2018-07-30T02:38:03.580Z,21.91
2018-07-30T02:40:32.045Z,21.89
2018-07-30T02:43:00.449Z,21.93
2018-07-30T02:45:28.933Z,21.84
2018-07-30T02:47:57.329Z,21.80
2018-07-30T02:50:25.757Z,21.71
2018-07-30T02:52:54.201Z,21.65
2018-07-30T02:55:22.643Z,21.64
2018-07-30T02:57:51.084Z,21.66
2018-07-30T03:00:19.474Z,21.74
2018-07-30T03:02:49.660Z,21.79
2018-07-30T03:05:19.061Z,21.82
2018-07-30T03:07:47.481Z,21.83
2018-07-30T03:10:15.925Z,21.70
2018-07-30T03:12:44.383Z,21.59
2018-07-30T03:15:12.880Z,21.41
2018-07-30T03:17:41.354Z,21.36
2018-07-30T03:20:10.440Z,21.21
2018-07-30T03:22:38.843Z,21.28
2018-07-30T03:25:07.714Z,21.27
2018-07-30T03:27:36.188Z,21.24
2018-07-30T03:30:06.368Z,21.20
2018-07-30T03:32:34.792Z,21.26
2018-07-30T03:35:03.303Z,21.25
2018-07-30T03:37:31.747Z,21.20
2018-07-30T03:40:00.130Z,21.23
2018-07-30T03:42:28.588Z,21.28
2018-07-30T03:44:56.993Z,21.30
2018-07-30T03:47:25.375Z,21.35
2018-07-30T03:49:53.840Z,21.40
2018-07-30T03:52:22.264Z,21.42
2018-07-30T03:54:50.687Z,21.37
2018-07-30T03:57:19.123Z,21.25
2018-07-30T03:59:47.540Z,21.18
2018-07-30T04:02:15.994Z,21.15
2018-07-30T04:04:44.391Z,21.20
2018-07-30T04:07:12.784Z,21.23
2018-07-30T04:09:41.190Z,21.27
2018-07-30T04:12:09.579Z,21.24
2018-07-30T04:14:37.944Z,21.19
2018-07-30T04:17:06.363Z,21.10
2018-07-30T04:19:34.740Z,21.09
2018-07-30T04:22:03.135Z,20.99
2018-07-30T04:24:31.508Z,20.98
2018-07-30T04:26:59.908Z,20.98
2018-07-30T04:29:28.357Z,20.98
2018-07-30T04:31:56.762Z,21.00
2018-07-30T04:34:25.157Z,21.00
2018-07-30T04:36:53.543Z,21.01
2018-07-30T04:39:21.943Z,20.96
2018-07-30T04:41:50.325Z,20.90
2018-07-30T04:44:18.754Z,20.97
2018-07-30T04:46:47.176Z,21.08
2018-07-30T04:49:15.654Z,21.16
2018-07-30T04:51:44.028Z,21.25
2018-07-30T04:54:12.452Z,21.31
2018-07-30T04:56:40.887Z,21.37
2018-07-30T04:59:09.270Z,21.41
2018-07-30T05:01:37.650Z,21.45
2018-07-30T05:04:06.184Z,21.47
2018-07-30T05:06:34.539Z,21.48
2018-07-30T05:09:03.071Z,21.46
2018-07-30T05:11:31.437Z,21.53
2018-07-30T05:13:59.828Z,21.55
2018-07-30T05:16:28.223Z,21.55
2018-07-30T05:18:56.590Z,21.56
2018-07-30T05:21:24.999Z,21.56
2018-07-30T05:23:53.436Z,21.55
2018-07-30T05:26:21.834Z,21.61
2018-07-30T05:28:50.291Z,21.63
2018-07-30T05:31:18.732Z,21.66
2018-07-30T05:33:47.163Z,21.68
2018-07-30T05:36:15.567Z,21.70
2018-07-30T05:38:43.951Z,21.74
2018-07-30T05:41:12.393Z,21.81
2018-07-30T05:43:40.765Z,21.87
2018-07-30T05:46:09.186Z,21.92
2018-07-30T05:48:37.600Z,21.96
2018-07-30T05:51:06.100Z,22.01
2018-07-30T05:53:34.557Z,22.06
2018-07-30T05:56:04.056Z,22.14
2018-07-30T05:58:32.523Z,22.22
2018-07-30T06:01:00.991Z,22.26
2018-07-30T06:03:29.461Z,22.32
2018-07-30T06:05:57.931Z,22.37
2018-07-30T06:08:26.352Z,22.44
2018-07-30T06:10:54.739Z,22.51
2018-07-30T06:13:23.162Z,22.57
2018-07-30T06:15:51.560Z,22.59
2018-07-30T06:18:19.960Z,22.63
2018-07-30T06:20:48.434Z,22.69
2018-07-30T06:23:16.831Z,22.73
2018-07-30T06:25:45.364Z,22.79
2018-07-30T06:28:13.783Z,22.85
2018-07-30T06:30:42.205Z,22.91
2018-07-30T06:33:10.617Z,22.95
2018-07-30T06:35:38.983Z,23.02
2018-07-30T06:38:07.373Z,23.07
2018-07-30T06:40:35.799Z,23.09
2018-07-30T06:43:04.254Z,23.15
2018-07-30T06:45:32.637Z,23.22
2018-07-30T06:48:01.171Z,23.26
2018-07-30T06:50:29.652Z,23.27
2018-07-30T06:52:58.095Z,23.27
2018-07-30T06:55:26.542Z,23.27
2018-07-30T06:57:54.980Z,23.34
2018-07-30T07:00:23.483Z,23.36
2018-07-30T07:02:51.932Z,23.34
2018-07-30T07:05:20.337Z,23.33
2018-07-30T07:07:48.762Z,23.37
2018-07-30T07:10:17.218Z,23.40
2018-07-30T07:12:45.688Z,23.43
2018-07-30T07:15:14.812Z,23.45
2018-07-30T07:17:44.376Z,23.47
2018-07-30T07:20:12.818Z,23.47
2018-07-30T07:22:41.232Z,23.47
2018-07-30T07:25:09.680Z,23.49
2018-07-30T07:27:38.159Z,23.52
2018-07-30T07:30:07.769Z,23.53
2018-07-30T07:32:36.272Z,23.56
2018-07-30T07:35:05.130Z,23.60
2018-07-30T07:37:33.472Z,23.63
2018-07-30T07:40:01.915Z,23.68
2018-07-30T07:42:30.329Z,23.70
2018-07-30T07:44:58.710Z,23.73
2018-07-30T07:47:27.153Z,23.77
2018-07-30T07:49:55.539Z,23.83
2018-07-30T07:52:24.005Z,23.89
2018-07-30T07:54:52.500Z,23.88
2018-07-30T07:57:21.050Z,23.90
2018-07-30T07:59:49.484Z,23.56
2018-07-30T08:02:17.917Z,23.90
2018-07-30T08:04:46.292Z,23.91
2018-07-30T08:07:14.726Z,23.92
2018-07-30T08:09:43.166Z,23.97
2018-07-30T08:12:11.718Z,24.01
2018-07-30T08:14:40.214Z,24.06
2018-07-30T08:17:08.624Z,24.12
2018-07-30T08:19:37.242Z,24.16
2018-07-30T08:22:05.735Z,24.19
2018-07-30T08:24:34.112Z,24.23
2018-07-30T08:27:02.580Z,24.27
2018-07-30T08:29:31.081Z,24.27
2018-07-30T08:31:59.570Z,24.28
2018-07-30T08:34:27.964Z,24.30
2018-07-30T08:36:56.362Z,24.34
2018-07-30T08:39:24.796Z,24.45
2018-07-30T08:41:53.234Z,24.50
2018-07-30T08:44:21.652Z,24.54
2018-07-30T08:46:50.053Z,24.60
2018-07-30T08:49:18.454Z,24.57
2018-07-30T08:51:46.910Z,24.56
2018-07-30T08:54:15.337Z,24.59
2018-07-30T08:56:43.845Z,24.61
2018-07-30T08:59:12.299Z,24.62
2018-07-30T09:01:40.717Z,24.64
2018-07-30T09:04:09.129Z,24.64
2018-07-30T09:06:37.538Z,24.68
2018-07-30T09:09:08.567Z,24.72
2018-07-30T09:11:37.200Z,24.86
2018-07-30T09:14:05.794Z,24.81
2018-07-30T09:16:34.208Z,24.81
2018-07-30T09:19:02.617Z,24.94
2018-07-30T09:21:31.111Z,24.93
2018-07-30T09:23:59.547Z,24.93
2018-07-30T09:26:27.933Z,24.89
2018-07-30T09:28:56.386Z,24.94
2018-07-30T09:31:24.791Z,24.94
2018-07-30T09:33:53.201Z,25.15
2018-07-30T09:36:23.441Z,25.14
2018-07-30T09:38:52.181Z,25.07
2018-07-30T09:41:20.691Z,25.05
2018-07-30T09:43:49.380Z,25.09
2018-07-30T09:46:18.148Z,25.15
2018-07-30T09:48:46.616Z,25.13
2018-07-30T09:51:15.043Z,25.06
2018-07-30T09:53:43.456Z,25.04
2018-07-30T09:56:11.991Z,25.12
2018-07-30T09:58:40.412Z,25.24
2018-07-30T10:01:14.059Z,25.48
2018-07-30T10:03:42.432Z,25.75
2018-07-30T10:06:11.217Z,25.89
2018-07-30T10:08:39.632Z,25.91
2018-07-30T10:11:08.043Z,25.90
2018-07-30T10:13:36.433Z,25.82
2018-07-30T10:16:04.940Z,25.80
2018-07-30T10:18:33.365Z,25.78
2018-07-30T10:21:01.824Z,25.87
2018-07-30T10:23:30.206Z,25.82
2018-07-30T10:25:58.595Z,25.78
2018-07-30T10:28:27.061Z,25.77
2018-07-30T10:30:55.474Z,25.85
2018-07-30T10:33:23.895Z,25.82
2018-07-30T10:35:52.312Z,25.90
2018-07-30T10:38:20.823Z,25.85
2018-07-30T10:40:49.207Z,25.80
2018-07-30T10:43:17.667Z,25.74
2018-07-30T10:45:46.028Z,25.80
2018-07-30T10:48:14.412Z,25.79
2018-07-30T10:50:42.812Z,25.83
2018-07-30T10:53:11.260Z,25.86
2018-07-30T10:55:39.721Z,25.89
2018-07-30T10:58:08.160Z,26.00
2018-07-30T11:00:36.603Z,26.26
2018-07-30T11:03:05.022Z,26.32
2018-07-30T11:05:33.415Z,26.31
2018-07-30T11:08:01.855Z,26.26
2018-07-30T11:10:30.261Z,26.27
2018-07-30T11:12:58.697Z,26.37
2018-07-30T11:15:27.152Z,26.33
2018-07-30T11:17:55.593Z,26.27
2018-07-30T11:20:24.092Z,26.34
2018-07-30T11:22:52.464Z,26.48
2018-07-30T11:25:20.955Z,26.69
2018-07-30T11:27:50.565Z,26.76
2018-07-30T11:30:18.993Z,26.58
2018-07-30T11:32:47.388Z,26.38
2018-07-30T11:35:15.783Z,26.30
2018-07-30T11:37:44.442Z,26.28
2018-07-30T11:40:12.880Z,26.40
2018-07-30T11:42:41.289Z,26.67
2018-07-30T11:45:09.801Z,26.79
2018-07-30T11:47:38.223Z,26.85
2018-07-30T11:50:06.715Z,26.95
2018-07-30T11:52:35.179Z,26.99
2018-07-30T11:55:03.662Z,27.14
2018-07-30T12:04:18.503Z,27.50
2018-07-30T12:06:46.966Z,27.63
2018-07-30T12:09:15.373Z,27.92
2018-07-30T12:11:43.836Z,27.98
2018-07-30T12:14:12.293Z,28.15
2018-07-30T12:16:40.683Z,28.51
2018-07-30T12:19:09.509Z,28.65
2018-07-30T12:21:38.663Z,28.70
2018-07-30T12:24:07.155Z,28.75
2018-07-30T12:26:35.523Z,28.89
2018-07-30T12:29:04.054Z,29.14
2018-07-30T12:31:32.484Z,29.44
2018-07-30T12:34:00.887Z,29.62
2018-07-30T12:36:29.320Z,29.93
2018-07-30T12:38:57.781Z,29.96
2018-07-30T12:41:26.203Z,29.84
2018-07-30T12:43:54.703Z,29.94
2018-07-30T12:49:09.725Z,30.27
2018-07-30T12:51:38.152Z,30.94
2018-07-30T12:54:06.573Z,31.30
2018-07-30T12:56:34.950Z,31.31
2018-07-30T12:59:03.386Z,31.25
2018-07-30T13:01:31.898Z,31.41
2018-07-30T13:04:00.336Z,31.03
2018-07-30T13:06:29.704Z,31.25
2018-07-30T13:08:58.096Z,31.76
2018-07-30T13:11:26.535Z,32.12
2018-07-30T13:13:54.962Z,32.15
2018-07-30T13:16:23.350Z,32.05
2018-07-30T13:18:51.753Z,31.63
2018-07-30T13:21:20.205Z,31.26
2018-07-30T13:23:48.622Z,31.01
2018-07-30T13:26:17.052Z,30.88
2018-07-30T13:28:45.502Z,30.70
2018-07-30T13:31:13.944Z,30.60
2018-07-30T13:33:42.324Z,30.43
2018-07-30T13:36:10.732Z,30.51
2018-07-30T13:38:39.152Z,30.55
2018-07-30T13:41:07.651Z,30.43
2018-07-30T13:43:36.101Z,30.25
2018-07-30T13:46:04.496Z,30.19
2018-07-30T13:48:32.986Z,30.58
2018-07-30T13:51:01.452Z,30.90
2018-07-30T13:53:29.956Z,30.87
2018-07-30T13:55:58.408Z,30.87
2018-07-30T13:58:28.033Z,30.71
2018-07-30T14:00:56.444Z,30.62
2018-07-30T14:03:24.996Z,30.44
2018-07-30T14:05:53.475Z,30.22
2018-07-30T14:08:22.090Z,30.10
2018-07-30T14:10:50.573Z,30.26
2018-07-30T14:13:19.013Z,30.52
2018-07-30T14:15:47.463Z,31.02
2018-07-30T14:18:15.871Z,31.57
2018-07-30T14:20:44.360Z,31.83
2018-07-30T14:23:12.814Z,31.68
2018-07-30T14:25:42.317Z,31.61
2018-07-30T14:28:10.797Z,31.72
2018-07-30T14:30:39.283Z,31.90
2018-07-30T14:33:07.648Z,31.97
2018-07-30T14:35:36.087Z,31.77
2018-07-30T14:38:04.534Z,31.40
2018-07-30T14:40:32.933Z,31.31
2018-07-30T14:43:01.377Z,31.51
2018-07-30T14:45:29.780Z,31.51
2018-07-30T14:47:58.260Z,31.44
2018-07-30T14:50:26.661Z,31.33
2018-07-30T14:52:55.117Z,31.20
2018-07-30T14:55:23.891Z,31.09
2018-07-30T14:57:52.724Z,31.03
2018-07-30T15:00:21.248Z,31.02
2018-07-30T15:02:49.665Z,30.92
2018-07-30T15:05:20.877Z,30.86
2018-07-30T15:07:49.885Z,30.84
2018-07-30T15:10:18.804Z,31.13
2018-07-30T15:12:47.239Z,31.33
2018-07-30T15:15:15.678Z,31.48
2018-07-30T15:17:44.114Z,31.71
2018-07-30T15:20:12.545Z,31.92
2018-07-30T15:22:41.010Z,31.98
2018-07-30T15:25:09.429Z,32.02
2018-07-30T15:27:37.883Z,31.85
2018-07-30T15:30:06.871Z,31.57
2018-07-30T15:32:35.320Z,31.56
2018-07-30T15:35:03.779Z,31.47
2018-07-30T15:37:33.085Z,31.48
2018-07-30T15:40:02.257Z,31.58
2018-07-30T15:42:30.645Z,31.64
2018-07-30T15:44:59.339Z,31.80
2018-07-30T15:47:27.725Z,31.98
2018-07-30T15:49:56.163Z,32.06
2018-07-30T15:52:25.594Z,32.06
2018-07-30T15:54:54.098Z,32.08
2018-07-30T15:57:22.525Z,32.09
2018-07-30T15:59:50.921Z,32.03
2018-07-30T16:02:19.364Z,32.00
2018-07-30T16:04:47.781Z,32.07
2018-07-30T16:07:16.180Z,32.10
2018-07-30T16:09:45.285Z,32.17
2018-07-30T16:12:13.670Z,32.25
2018-07-30T16:14:42.103Z,32.30
2018-07-30T16:17:10.512Z,32.39
2018-07-30T16:19:39.008Z,32.46
2018-07-30T16:22:07.516Z,32.51
2018-07-30T16:24:35.953Z,32.62
2018-07-30T16:27:05.405Z,32.75
2018-07-30T16:29:34.323Z,32.80
2018-07-30T16:32:02.758Z,32.69
2018-07-30T16:34:31.831Z,32.47
2018-07-30T16:37:00.239Z,32.39
2018-07-30T16:39:28.684Z,32.23
2018-07-30T16:41:57.127Z,32.12
2018-07-30T16:44:26.222Z,32.19
2018-07-30T16:46:55.256Z,32.35
2018-07-30T16:49:23.663Z,32.48
2018-07-30T16:51:52.161Z,32.56
2018-07-30T16:54:20.567Z,32.67
2018-07-30T16:56:49.062Z,32.75
2018-07-30T16:59:17.987Z,32.73
2018-07-30T17:01:46.477Z,32.79
2018-07-30T17:04:14.859Z,32.76
2018-07-30T17:06:43.749Z,32.73
2018-07-30T17:09:12.888Z,32.75
2018-07-30T17:11:41.574Z,32.71
2018-07-30T17:14:09.983Z,32.73
2018-07-30T17:16:38.440Z,32.75
2018-07-30T17:19:07.008Z,32.59
2018-07-30T17:21:35.489Z,32.49
2018-07-30T17:24:03.946Z,32.46
2018-07-30T17:26:32.525Z,32.48
2018-07-30T17:29:00.948Z,32.54
2018-07-30T17:31:29.428Z,32.49
2018-07-30T17:33:58.263Z,32.42
2018-07-30T17:36:27.058Z,32.35
2018-07-30T17:38:55.871Z,32.25
2018-07-30T17:41:24.352Z,32.16
2018-07-30T17:43:54.488Z,32.08
2018-07-30T17:46:23.221Z,32.04
2018-07-30T17:48:51.848Z,32.01
2018-07-30T17:51:20.314Z,31.95
2018-07-30T17:53:48.780Z,31.90
2018-07-30T17:56:17.907Z,31.83
2018-07-30T17:58:46.377Z,31.78
2018-07-30T18:01:14.974Z,31.72
2018-07-30T18:03:43.412Z,31.63
2018-07-30T18:06:12.135Z,31.59
2018-07-30T18:08:40.549Z,31.52
2018-07-30T18:11:09.178Z,31.44
2018-07-30T18:13:37.585Z,31.36
2018-07-30T18:16:06.151Z,31.26
2018-07-30T18:18:34.578Z,31.20
2018-07-30T18:21:03.600Z,31.14
2018-07-30T18:23:32.018Z,31.10
2018-07-30T18:26:00.454Z,31.08
2018-07-30T18:28:28.890Z,30.98
2018-07-30T18:30:58.924Z,30.95
2018-07-30T18:33:27.356Z,30.92
2018-07-30T18:35:56.438Z,30.85
2018-07-30T18:38:24.920Z,30.76
2018-07-30T18:40:53.403Z,30.71
2018-07-30T18:43:21.995Z,30.66
2018-07-30T18:45:50.416Z,30.62
2018-07-30T18:48:18.868Z,30.54
2018-07-30T18:50:47.449Z,30.50
2018-07-30T18:53:15.911Z,30.41
2018-07-30T18:55:44.323Z,30.32
2018-07-30T18:58:12.811Z,30.17
2018-07-30T19:00:41.304Z,30.07
2018-07-30T19:03:09.995Z,30.04
2018-07-30T19:05:38.571Z,30.00
2018-07-30T19:08:07.119Z,29.91
2018-07-30T19:10:36.588Z,29.80
2018-07-30T19:13:05.142Z,29.71
2018-07-30T19:15:33.891Z,29.56
2018-07-30T19:18:02.407Z,29.47
2018-07-30T19:20:31.160Z,29.34
2018-07-30T19:22:59.654Z,29.22
2018-07-30T19:25:28.092Z,29.14
2018-07-30T19:27:56.557Z,29.09
2018-07-30T19:30:25.243Z,29.04
2018-07-30T19:32:53.990Z,28.94
2018-07-30T19:35:23.669Z,28.83
2018-07-30T19:37:53.123Z,28.72
2018-07-30T19:40:22.183Z,28.67
2018-07-30T19:42:50.764Z,28.63
2018-07-30T19:45:19.433Z,28.58
2018-07-30T19:47:48.237Z,28.37
2018-07-30T19:50:17.013Z,28.34
2018-07-30T19:52:45.497Z,28.22
2018-07-30T19:55:14.213Z,28.14
2018-07-30T19:57:44.051Z,28.07
2018-07-30T20:00:12.456Z,27.93
2018-07-30T20:02:41.428Z,27.76
2018-07-30T20:05:10.192Z,27.57
2018-07-30T20:07:38.936Z,27.51
2018-07-30T20:10:07.741Z,27.37
2018-07-30T20:12:38.080Z,27.26
2018-07-30T20:15:08.723Z,27.21
2018-07-30T20:17:37.218Z,27.16
2018-07-30T20:20:07.852Z,27.07
2018-07-30T20:22:36.616Z,27.00
2018-07-30T20:25:05.633Z,26.94
2018-07-30T20:27:34.134Z,26.94
2018-07-30T20:30:02.881Z,26.90
2018-07-30T20:32:31.337Z,26.75
2018-07-30T20:34:59.991Z,26.62
2018-07-30T20:37:28.719Z,26.38
2018-07-30T20:39:57.141Z,26.41
2018-07-30T20:42:25.702Z,26.35
2018-07-30T20:44:54.155Z,26.44
2018-07-30T20:47:23.073Z,26.43
2018-07-30T20:49:51.540Z,26.39
2018-07-30T20:52:20.007Z,26.31
2018-07-30T20:54:48.704Z,26.27
2018-07-30T20:57:17.303Z,26.29
2018-07-30T20:59:47.162Z,26.29
2018-07-30T21:02:15.571Z,26.32
2018-07-30T21:04:43.992Z,26.28
2018-07-30T21:07:12.443Z,26.16
2018-07-30T21:09:40.882Z,26.18
2018-07-30T21:12:09.361Z,26.22
2018-07-30T21:14:37.802Z,26.07
2018-07-30T21:17:06.292Z,25.99
2018-07-30T21:19:34.765Z,25.79
2018-07-30T21:22:03.216Z,25.35
2018-07-30T21:24:31.581Z,25.20
2018-07-30T21:27:00.091Z,25.22
2018-07-30T21:29:28.460Z,25.26
2018-07-30T21:31:56.884Z,25.30
2018-07-30T21:34:25.412Z,25.30
2018-07-30T21:36:53.980Z,25.34
2018-07-30T21:39:22.447Z,25.38
2018-07-30T21:41:50.924Z,25.38
2018-07-30T21:44:19.368Z,25.41
2018-07-30T21:46:47.767Z,25.32
2018-07-30T21:49:16.210Z,25.29
2018-07-30T21:51:44.929Z,25.29
2018-07-30T21:54:13.339Z,25.26
2018-07-30T21:56:41.775Z,25.28
2018-07-30T21:59:10.233Z,25.31
2018-07-30T22:01:39.051Z,25.25
2018-07-30T22:04:07.541Z,25.25
2018-07-30T22:06:37.299Z,25.21
2018-07-30T22:09:08.164Z,25.19
2018-07-30T22:11:36.761Z,25.15
2018-07-30T22:14:05.432Z,25.08
2018-07-30T22:16:33.890Z,25.07
2018-07-30T22:19:02.333Z,25.15
2018-07-30T22:21:30.765Z,25.13
2018-07-30T22:23:59.196Z,25.07
2018-07-30T22:26:27.623Z,25.10
2018-07-30T22:28:56.100Z,25.05
2018-07-30T22:31:24.546Z,25.06
2018-07-30T22:33:53.001Z,25.03
2018-07-30T22:36:21.432Z,24.99
2018-07-30T22:38:49.808Z,24.90
2018-07-30T22:41:18.312Z,24.90
2018-07-30T22:43:46.748Z,24.88
2018-07-30T22:46:15.171Z,24.81
2018-07-30T22:48:43.584Z,24.79
2018-07-30T22:51:12.065Z,24.69
2018-07-30T22:53:40.496Z,24.56
2018-07-30T22:56:08.948Z,24.49
2018-07-30T22:58:37.399Z,24.45
2018-07-30T23:01:05.772Z,24.39
2018-07-30T23:03:34.305Z,24.36
2018-07-30T23:06:02.717Z,24.40
2018-07-30T23:08:31.133Z,24.39
2018-07-30T23:10:59.500Z,24.38
2018-07-30T23:13:27.928Z,24.29
2018-07-30T23:15:56.295Z,24.25
2018-07-30T23:18:24.750Z,24.15
2018-07-30T23:20:53.136Z,24.13
2018-07-30T23:23:22.297Z,24.08
2018-07-30T23:25:50.740Z,24.14
2018-07-30T23:28:19.236Z,24.25
2018-07-30T23:30:47.641Z,24.27
2018-07-30T23:33:16.022Z,24.21
2018-07-30T23:35:44.439Z,24.25
2018-07-30T23:38:12.848Z,24.24
2018-07-30T23:40:41.244Z,24.13
2018-07-30T23:43:09.597Z,24.05
2018-07-30T23:45:38.009Z,23.94
2018-07-30T23:48:06.413Z,23.82
2018-07-30T23:50:34.809Z,23.48
2018-07-30T23:53:03.157Z,23.44
2018-07-30T23:55:31.599Z,23.52
2018-07-30T23:57:59.986Z,23.54
